Forside
METAR-TAF:

METAR-TAF

Lufthavne :

Larnaca Internationale Lufthavn

Larnaca, Cypern

Breddekreds: 34-53N, længdekreds: 033-38E, højde: 2 m

Aktuelle vejr

Denne rapport blev lavet for 17 minutter siden, kl. 02:30 UTC
Vind 5 kt fra nordnordvest
Temperatur 24°C
Fugtighed 89%
Tryk 1006 hPa
Sigt 10 km eller mere
ingen skyer under 1500m og ingen cumulonimbus

METAR: LCLK 160230Z 33005KT CAVOK 24/22 Q1006 NOSIG

Tid: 05:47 (02:47 UTC)

Vejrudsigter

Denne rapport blev lavet for 3 timer og 17 minutter siden, kl. 23:30 UTC
Foreløbig gælder fra 16 på 00 UTC til 16 på 24 UTC
Vind 6 kt fra vestnordvest
Sigt 10 km eller mere
Nogle få skyer i en højde af 3000 ft
ændring
fra 16 på 08 UTC til 16 på 11 UTC
Vind 18 kt fra sydsydvest
ændring
fra 16 på 19 UTC til 16 på 23 UTC
Vind 6 kt fra vestsydvest

TAF: LCLK 152330Z 1600/1624 30006KT 9999 FEW030 BECMG 1608/1611 21018KT BECMG 1619/1623 25006KT

Vejrobservationer og prognoser fra mere end 4000 lufthavne (METAR og TAF).

De gule og røde prikker repræsenterer de meteorologiske stationer.

Flyt musen over at se navnet på stationen.

Så klik over at se vejr observationer og prognoser.

At skifte det kort: Klik på de grønne knapper med et sort kors for at zoome ind; på den grønne knap med en bindestreg for at zoome ud; eller på de grønne pile for tilstødende kort.


METAR-TAF: